sensor_id;sensor_type;location;lat;lon;timestamp;P1;durP1;ratioP1;P2;durP2;ratioP2
60416;SDS011;46263;44.726;10.396;2022-09-09T00:09:47;2.33;;;2.13;;
60416;SDS011;46263;44.726;10.396;2022-09-09T00:12:27;2.55;;;2.17;;
60416;SDS011;46263;44.726;10.396;2022-09-09T00:15:12;4.07;;;2.20;;
60416;SDS011;46263;44.726;10.396;2022-09-09T00:20:21;3.35;;;2.30;;
60416;SDS011;46263;44.726;10.396;2022-09-09T00:22:57;2.47;;;2.22;;
60416;SDS011;46263;44.726;10.396;2022-09-09T00:28:28;2.88;;;2.15;;
60416;SDS011;46263;44.726;10.396;2022-09-09T00:30:59;4.57;;;2.70;;
60416;SDS011;46263;44.726;10.396;2022-09-09T00:33:34;3.83;;;2.42;;
60416;SDS011;46263;44.726;10.396;2022-09-09T00:36:00;2.45;;;2.00;;
60416;SDS011;46263;44.726;10.396;2022-09-09T00:38:28;2.53;;;2.05;;
60416;SDS011;46263;44.726;10.396;2022-09-09T00:41:21;3.33;;;1.95;;
60416;SDS011;46263;44.726;10.396;2022-09-09T00:43:52;5.05;;;2.38;;
60416;SDS011;46263;44.726;10.396;2022-09-09T00:46:30;4.70;;;2.05;;
60416;SDS011;46263;44.726;10.396;2022-09-09T00:49:20;3.80;;;1.88;;
60416;SDS011;46263;44.726;10.396;2022-09-09T00:57:33;3.03;;;1.65;;
60416;SDS011;46263;44.726;10.396;2022-09-09T01:11:05;2.58;;;1.70;;
60416;SDS011;46263;44.726;10.396;2022-09-09T01:13:35;2.25;;;1.75;;
60416;SDS011;46263;44.726;10.396;2022-09-09T01:16:04;1.98;;;1.50;;
60416;SDS011;46263;44.726;10.396;2022-09-09T01:18:40;2.17;;;1.95;;
60416;SDS011;46263;44.726;10.396;2022-09-09T01:27:01;2.75;;;1.52;;
60416;SDS011;46263;44.726;10.396;2022-09-09T01:29:29;2.30;;;1.30;;
60416;SDS011;46263;44.726;10.396;2022-09-09T01:34:20;2.35;;;1.35;;
60416;SDS011;46263;44.726;10.396;2022-09-09T01:36:49;2.28;;;1.50;;
60416;SDS011;46263;44.726;10.396;2022-09-09T01:39:18;2.03;;;1.80;;
60416;SDS011;46263;44.726;10.396;2022-09-09T01:41:45;2.22;;;1.20;;
60416;SDS011;46263;44.726;10.396;2022-09-09T01:44:10;2.28;;;1.33;;
60416;SDS011;46263;44.726;10.396;2022-09-09T01:46:36;3.03;;;1.40;;
60416;SDS011;46263;44.726;10.396;2022-09-09T01:49:02;3.30;;;1.70;;
60416;SDS011;46263;44.726;10.396;2022-09-09T01:51:30;1.83;;;1.40;;
60416;SDS011;46263;44.726;10.396;2022-09-09T01:53:56;2.15;;;1.45;;
60416;SDS011;46263;44.726;10.396;2022-09-09T02:01:49;3.45;;;1.42;;
60416;SDS011;46263;44.726;10.396;2022-09-09T02:07:16;1.90;;;1.20;;
60416;SDS011;46263;44.726;10.396;2022-09-09T02:10:50;2.85;;;1.20;;
60416;SDS011;46263;44.726;10.396;2022-09-09T02:12:55;1.30;;;1.20;;
60416;SDS011;46263;44.726;10.396;2022-09-09T02:16:00;3.25;;;1.20;;
60416;SDS011;46263;44.726;10.396;2022-09-09T02:21:07;1.27;;;1.10;;
60416;SDS011;46263;44.726;10.396;2022-09-09T02:23:35;1.88;;;1.10;;
60416;SDS011;46263;44.726;10.396;2022-09-09T02:26:02;1.05;;;0.95;;
60416;SDS011;46263;44.726;10.396;2022-09-09T02:28:29;4.10;;;1.30;;
60416;SDS011;46263;44.726;10.396;2022-09-09T02:30:57;2.80;;;1.63;;
60416;SDS011;46263;44.726;10.396;2022-09-09T02:33:28;1.73;;;1.10;;
60416;SDS011;46263;44.726;10.396;2022-09-09T02:35:59;1.33;;;1.00;;
60416;SDS011;46263;44.726;10.396;2022-09-09T02:38:29;1.95;;;1.05;;
60416;SDS011;46263;44.726;10.396;2022-09-09T02:41:00;2.70;;;1.20;;
60416;SDS011;46263;44.726;10.396;2022-09-09T02:43:36;2.30;;;1.10;;
60416;SDS011;46263;44.726;10.396;2022-09-09T02:46:16;1.40;;;0.95;;
60416;SDS011;46263;44.726;10.396;2022-09-09T02:56:41;2.17;;;1.17;;
60416;SDS011;46263;44.726;10.396;2022-09-09T02:59:15;1.63;;;1.05;;
60416;SDS011;46263;44.726;10.396;2022-09-09T03:01:41;2.63;;;1.50;;
60416;SDS011;46263;44.726;10.396;2022-09-09T03:04:06;1.63;;;0.95;;
60416;SDS011;46263;44.726;10.396;2022-09-09T03:06:32;1.23;;;0.82;;
60416;SDS011;46263;44.726;10.396;2022-09-09T03:08:58;1.85;;;1.20;;
60416;SDS011;46263;44.726;10.396;2022-09-09T03:11:26;0.98;;;0.90;;
60416;SDS011;46263;44.726;10.396;2022-09-09T03:13:53;1.40;;;1.00;;
60416;SDS011;46263;44.726;10.396;2022-09-09T03:16:19;2.25;;;1.10;;
60416;SDS011;46263;44.726;10.396;2022-09-09T03:18:46;1.20;;;1.10;;
60416;SDS011;46263;44.726;10.396;2022-09-09T03:21:12;2.60;;;1.15;;
60416;SDS011;46263;44.726;10.396;2022-09-09T03:23:37;1.85;;;1.00;;
60416;SDS011;46263;44.726;10.396;2022-09-09T03:26:02;1.08;;;0.90;;
60416;SDS011;46263;44.726;10.396;2022-09-09T03:28:28;2.97;;;0.95;;
60416;SDS011;46263;44.726;10.396;2022-09-09T03:31:01;3.00;;;1.13;;
60416;SDS011;46263;44.726;10.396;2022-09-09T03:33:30;1.20;;;0.95;;
60416;SDS011;46263;44.726;10.396;2022-09-09T03:35:56;1.83;;;1.05;;
60416;SDS011;46263;44.726;10.396;2022-09-09T03:38:23;2.42;;;1.25;;
60416;SDS011;46263;44.726;10.396;2022-09-09T03:40:50;0.90;;;0.90;;
60416;SDS011;46263;44.726;10.396;2022-09-09T03:43:20;3.95;;;1.10;;
60416;SDS011;46263;44.726;10.396;2022-09-09T03:45:46;1.10;;;0.85;;
60416;SDS011;46263;44.726;10.396;2022-09-09T03:48:12;2.83;;;1.10;;
60416;SDS011;46263;44.726;10.396;2022-09-09T03:50:39;1.70;;;0.77;;
60416;SDS011;46263;44.726;10.396;2022-09-09T03:53:04;4.03;;;1.13;;
60416;SDS011;46263;44.726;10.396;2022-09-09T03:55:31;2.70;;;1.00;;
60416;SDS011;46263;44.726;10.396;2022-09-09T03:57:57;1.85;;;1.05;;
60416;SDS011;46263;44.726;10.396;2022-09-09T04:00:23;1.50;;;0.75;;
60416;SDS011;46263;44.726;10.396;2022-09-09T04:02:49;3.15;;;0.85;;
60416;SDS011;46263;44.726;10.396;2022-09-09T04:05:15;1.10;;;0.90;;
60416;SDS011;46263;44.726;10.396;2022-09-09T04:07:40;1.67;;;1.00;;
60416;SDS011;46263;44.726;10.396;2022-09-09T04:10:06;1.83;;;1.10;;
60416;SDS011;46263;44.726;10.396;2022-09-09T04:12:33;2.47;;;1.20;;
60416;SDS011;46263;44.726;10.396;2022-09-09T04:14:59;1.50;;;1.00;;
60416;SDS011;46263;44.726;10.396;2022-09-09T04:17:27;1.80;;;0.85;;
60416;SDS011;46263;44.726;10.396;2022-09-09T04:19:52;2.15;;;0.85;;
60416;SDS011;46263;44.726;10.396;2022-09-09T04:22:18;1.70;;;1.02;;
60416;SDS011;46263;44.726;10.396;2022-09-09T04:24:43;0.82;;;0.75;;
60416;SDS011;46263;44.726;10.396;2022-09-09T04:27:09;2.58;;;1.05;;
60416;SDS011;46263;44.726;10.396;2022-09-09T04:29:34;2.83;;;1.00;;
60416;SDS011;46263;44.726;10.396;2022-09-09T04:32:00;2.30;;;1.00;;
60416;SDS011;46263;44.726;10.396;2022-09-09T04:34:25;2.28;;;1.00;;
60416;SDS011;46263;44.726;10.396;2022-09-09T04:36:51;1.60;;;1.10;;
60416;SDS011;46263;44.726;10.396;2022-09-09T04:39:17;1.77;;;0.90;;
60416;SDS011;46263;44.726;10.396;2022-09-09T04:41:42;1.65;;;1.00;;
60416;SDS011;46263;44.726;10.396;2022-09-09T04:44:08;0.90;;;0.85;;
60416;SDS011;46263;44.726;10.396;2022-09-09T04:46:35;1.17;;;0.80;;
60416;SDS011;46263;44.726;10.396;2022-09-09T04:49:00;2.65;;;1.20;;
60416;SDS011;46263;44.726;10.396;2022-09-09T04:51:26;2.30;;;0.90;;
60416;SDS011;46263;44.726;10.396;2022-09-09T04:53:51;0.90;;;0.90;;
60416;SDS011;46263;44.726;10.396;2022-09-09T04:56:18;2.90;;;1.00;;
60416;SDS011;46263;44.726;10.396;2022-09-09T04:58:45;2.10;;;1.08;;
60416;SDS011;46263;44.726;10.396;2022-09-09T05:03:39;1.92;;;0.80;;
60416;SDS011;46263;44.726;10.396;2022-09-09T05:06:06;1.33;;;1.00;;
60416;SDS011;46263;44.726;10.396;2022-09-09T05:08:35;2.60;;;0.80;;
60416;SDS011;46263;44.726;10.396;2022-09-09T05:11:17;0.80;;;0.80;;
60416;SDS011;46263;44.726;10.396;2022-09-09T05:13:44;0.93;;;0.82;;
60416;SDS011;46263;44.726;10.396;2022-09-09T05:16:10;1.65;;;1.05;;
60416;SDS011;46263;44.726;10.396;2022-09-09T05:18:36;1.23;;;0.80;;
60416;SDS011;46263;44.726;10.396;2022-09-09T05:21:03;2.15;;;0.90;;
60416;SDS011;46263;44.726;10.396;2022-09-09T05:23:28;1.95;;;1.00;;
60416;SDS011;46263;44.726;10.396;2022-09-09T05:25:57;1.35;;;0.70;;
60416;SDS011;46263;44.726;10.396;2022-09-09T05:28:26;2.15;;;0.98;;
60416;SDS011;46263;44.726;10.396;2022-09-09T05:30:56;1.08;;;1.00;;
60416;SDS011;46263;44.726;10.396;2022-09-09T05:33:23;1.95;;;0.90;;
60416;SDS011;46263;44.726;10.396;2022-09-09T05:38:48;2.45;;;1.10;;
60416;SDS011;46263;44.726;10.396;2022-09-09T05:41:15;1.17;;;0.88;;
60416;SDS011;46263;44.726;10.396;2022-09-09T05:43:41;2.97;;;1.00;;
60416;SDS011;46263;44.726;10.396;2022-09-09T05:46:13;2.35;;;0.90;;
60416;SDS011;46263;44.726;10.396;2022-09-09T05:48:41;0.98;;;0.90;;
60416;SDS011;46263;44.726;10.396;2022-09-09T05:51:09;4.03;;;1.48;;
60416;SDS011;46263;44.726;10.396;2022-09-09T05:53:37;2.05;;;0.90;;
60416;SDS011;46263;44.726;10.396;2022-09-09T05:56:04;3.28;;;1.48;;
60416;SDS011;46263;44.726;10.396;2022-09-09T05:58:32;2.28;;;0.90;;
60416;SDS011;46263;44.726;10.396;2022-09-09T06:01:05;1.48;;;0.73;;
60416;SDS011;46263;44.726;10.396;2022-09-09T06:03:52;1.17;;;1.08;;
60416;SDS011;46263;44.726;10.396;2022-09-09T06:06:22;1.88;;;1.10;;
60416;SDS011;46263;44.726;10.396;2022-09-09T06:08:51;2.97;;;1.00;;
60416;SDS011;46263;44.726;10.396;2022-09-09T06:11:22;1.83;;;0.85;;
60416;SDS011;46263;44.726;10.396;2022-09-09T06:13:49;2.00;;;1.10;;
60416;SDS011;46263;44.726;10.396;2022-09-09T06:16:20;1.15;;;0.93;;
60416;SDS011;46263;44.726;10.396;2022-09-09T06:18:50;2.55;;;0.93;;
60416;SDS011;46263;44.726;10.396;2022-09-09T06:21:17;2.13;;;1.00;;
60416;SDS011;46263;44.726;10.396;2022-09-09T06:23:44;1.52;;;1.05;;
60416;SDS011;46263;44.726;10.396;2022-09-09T06:26:11;2.33;;;0.90;;
60416;SDS011;46263;44.726;10.396;2022-09-09T06:28:38;1.63;;;0.90;;
60416;SDS011;46263;44.726;10.396;2022-09-09T06:31:04;1.00;;;1.00;;
60416;SDS011;46263;44.726;10.396;2022-09-09T06:33:36;1.05;;;0.90;;
60416;SDS011;46263;44.726;10.396;2022-09-09T06:36:05;4.93;;;1.55;;
60416;SDS011;46263;44.726;10.396;2022-09-09T06:38:31;1.17;;;1.00;;
60416;SDS011;46263;44.726;10.396;2022-09-09T06:40:57;1.10;;;0.80;;
60416;SDS011;46263;44.726;10.396;2022-09-09T06:43:24;1.13;;;0.80;;
60416;SDS011;46263;44.726;10.396;2022-09-09T06:48:20;1.30;;;0.95;;
60416;SDS011;46263;44.726;10.396;2022-09-09T06:50:46;3.05;;;1.10;;
60416;SDS011;46263;44.726;10.396;2022-09-09T06:53:12;2.50;;;0.90;;
60416;SDS011;46263;44.726;10.396;2022-09-09T06:55:37;2.42;;;1.10;;
60416;SDS011;46263;44.726;10.396;2022-09-09T06:58:07;1.75;;;1.10;;
60416;SDS011;46263;44.726;10.396;2022-09-09T07:00:33;2.78;;;1.00;;
60416;SDS011;46263;44.726;10.396;2022-09-09T07:02:59;2.55;;;0.90;;
60416;SDS011;46263;44.726;10.396;2022-09-09T07:05:24;2.40;;;1.25;;
60416;SDS011;46263;44.726;10.396;2022-09-09T07:07:51;3.17;;;1.13;;
60416;SDS011;46263;44.726;10.396;2022-09-09T07:10:17;2.67;;;1.45;;
60416;SDS011;46263;44.726;10.396;2022-09-09T07:12:42;2.15;;;1.13;;
60416;SDS011;46263;44.726;10.396;2022-09-09T07:15:08;3.28;;;1.60;;
60416;SDS011;46263;44.726;10.396;2022-09-09T07:17:34;2.67;;;1.25;;
60416;SDS011;46263;44.726;10.396;2022-09-09T07:20:00;3.13;;;1.70;;
60416;SDS011;46263;44.726;10.396;2022-09-09T07:22:27;1.40;;;1.25;;
60416;SDS011;46263;44.726;10.396;2022-09-09T07:24:53;2.10;;;1.40;;
60416;SDS011;46263;44.726;10.396;2022-09-09T07:27:19;3.65;;;1.70;;
60416;SDS011;46263;44.726;10.396;2022-09-09T07:29:44;2.72;;;1.60;;
60416;SDS011;46263;44.726;10.396;2022-09-09T07:32:10;3.53;;;1.70;;
60416;SDS011;46263;44.726;10.396;2022-09-09T07:34:36;1.92;;;1.23;;
60416;SDS011;46263;44.726;10.396;2022-09-09T07:37:01;7.18;;;1.60;;
60416;SDS011;46263;44.726;10.396;2022-09-09T07:39:27;1.60;;;1.50;;
60416;SDS011;46263;44.726;10.396;2022-09-09T07:41:52;1.50;;;1.40;;
60416;SDS011;46263;44.726;10.396;2022-09-09T07:44:20;3.35;;;1.65;;
60416;SDS011;46263;44.726;10.396;2022-09-09T07:46:47;2.40;;;1.55;;
60416;SDS011;46263;44.726;10.396;2022-09-09T07:49:13;2.58;;;1.92;;
60416;SDS011;46263;44.726;10.396;2022-09-09T07:51:40;6.13;;;2.22;;
60416;SDS011;46263;44.726;10.396;2022-09-09T07:54:08;6.63;;;2.38;;
60416;SDS011;46263;44.726;10.396;2022-09-09T07:56:36;4.40;;;2.25;;
60416;SDS011;46263;44.726;10.396;2022-09-09T07:59:03;4.63;;;2.10;;
60416;SDS011;46263;44.726;10.396;2022-09-09T08:01:37;4.05;;;2.70;;
60416;SDS011;46263;44.726;10.396;2022-09-09T08:04:09;4.78;;;2.55;;
60416;SDS011;46263;44.726;10.396;2022-09-09T08:06:41;2.88;;;2.47;;
60416;SDS011;46263;44.726;10.396;2022-09-09T08:09:09;3.38;;;3.00;;
60416;SDS011;46263;44.726;10.396;2022-09-09T08:11:35;7.30;;;2.83;;
60416;SDS011;46263;44.726;10.396;2022-09-09T08:14:01;4.68;;;2.42;;
60416;SDS011;46263;44.726;10.396;2022-09-09T08:16:31;4.70;;;2.80;;
60416;SDS011;46263;44.726;10.396;2022-09-09T08:18:58;5.18;;;3.47;;
60416;SDS011;46263;44.726;10.396;2022-09-09T08:21:28;7.57;;;3.67;;
60416;SDS011;46263;44.726;10.396;2022-09-09T08:23:57;4.50;;;3.20;;
60416;SDS011;46263;44.726;10.396;2022-09-09T08:26:25;6.70;;;3.63;;
60416;SDS011;46263;44.726;10.396;2022-09-09T08:28:53;3.65;;;3.15;;
60416;SDS011;46263;44.726;10.396;2022-09-09T08:31:26;3.70;;;3.00;;
60416;SDS011;46263;44.726;10.396;2022-09-09T08:33:53;5.18;;;2.83;;
60416;SDS011;46263;44.726;10.396;2022-09-09T08:36:20;6.15;;;3.63;;
60416;SDS011;46263;44.726;10.396;2022-09-09T08:38:47;6.68;;;3.97;;
60416;SDS011;46263;44.726;10.396;2022-09-09T08:44:31;6.32;;;3.08;;
60416;SDS011;46263;44.726;10.396;2022-09-09T08:47:14;4.60;;;3.08;;
60416;SDS011;46263;44.726;10.396;2022-09-09T08:57:54;8.32;;;3.90;;
60416;SDS011;46263;44.726;10.396;2022-09-09T09:00:22;6.30;;;3.30;;
60416;SDS011;46263;44.726;10.396;2022-09-09T09:02:58;6.88;;;3.40;;
60416;SDS011;46263;44.726;10.396;2022-09-09T09:05:48;7.82;;;3.45;;
60416;SDS011;46263;44.726;10.396;2022-09-09T09:08:26;6.40;;;4.00;;
60416;SDS011;46263;44.726;10.396;2022-09-09T09:11:03;5.40;;;3.15;;
60416;SDS011;46263;44.726;10.396;2022-09-09T09:18:59;8.25;;;4.40;;
60416;SDS011;46263;44.726;10.396;2022-09-09T09:21:36;4.80;;;3.42;;
60416;SDS011;46263;44.726;10.396;2022-09-09T09:24:28;6.07;;;3.72;;
60416;SDS011;46263;44.726;10.396;2022-09-09T09:27:11;5.88;;;3.72;;
60416;SDS011;46263;44.726;10.396;2022-09-09T09:29:39;7.63;;;3.58;;
60416;SDS011;46263;44.726;10.396;2022-09-09T09:32:05;6.38;;;3.45;;
60416;SDS011;46263;44.726;10.396;2022-09-09T09:34:37;6.25;;;4.00;;
60416;SDS011;46263;44.726;10.396;2022-09-09T09:37:07;6.25;;;3.83;;
60416;SDS011;46263;44.726;10.396;2022-09-09T09:39:43;8.63;;;3.60;;
60416;SDS011;46263;44.726;10.396;2022-09-09T09:42:12;5.95;;;4.00;;
60416;SDS011;46263;44.726;10.396;2022-09-09T09:44:39;4.75;;;3.63;;
60416;SDS011;46263;44.726;10.396;2022-09-09T09:47:10;6.20;;;3.92;;
60416;SDS011;46263;44.726;10.396;2022-09-09T09:52:05;6.93;;;4.32;;
60416;SDS011;46263;44.726;10.396;2022-09-09T09:54:33;5.97;;;3.58;;
60416;SDS011;46263;44.726;10.396;2022-09-09T09:57:12;4.95;;;3.60;;
60416;SDS011;46263;44.726;10.396;2022-09-09T09:59:40;4.97;;;3.53;;
60416;SDS011;46263;44.726;10.396;2022-09-09T10:02:14;7.22;;;3.70;;
60416;SDS011;46263;44.726;10.396;2022-09-09T10:04:42;7.50;;;3.92;;
60416;SDS011;46263;44.726;10.396;2022-09-09T10:07:10;6.95;;;4.00;;
60416;SDS011;46263;44.726;10.396;2022-09-09T10:09:47;11.35;;;5.00;;
60416;SDS011;46263;44.726;10.396;2022-09-09T10:20:48;6.15;;;3.72;;
60416;SDS011;46263;44.726;10.396;2022-09-09T10:31:46;5.72;;;4.07;;
60416;SDS011;46263;44.726;10.396;2022-09-09T10:36:48;6.47;;;3.95;;
60416;SDS011;46263;44.726;10.396;2022-09-09T10:39:18;6.47;;;4.13;;
60416;SDS011;46263;44.726;10.396;2022-09-09T10:47:15;7.22;;;4.05;;
60416;SDS011;46263;44.726;10.396;2022-09-09T10:55:26;5.22;;;3.60;;
60416;SDS011;46263;44.726;10.396;2022-09-09T10:57:58;6.50;;;4.30;;
60416;SDS011;46263;44.726;10.396;2022-09-09T11:00:31;9.13;;;4.07;;
60416;SDS011;46263;44.726;10.396;2022-09-09T11:03:05;8.07;;;4.40;;
60416;SDS011;46263;44.726;10.396;2022-09-09T11:05:42;5.47;;;4.10;;
60416;SDS011;46263;44.726;10.396;2022-09-09T11:10:44;5.75;;;3.75;;
60416;SDS011;46263;44.726;10.396;2022-09-09T11:19:05;7.28;;;4.32;;
60416;SDS011;46263;44.726;10.396;2022-09-09T11:21:42;9.18;;;4.90;;
60416;SDS011;46263;44.726;10.396;2022-09-09T11:26:44;6.20;;;3.83;;
60416;SDS011;46263;44.726;10.396;2022-09-09T11:40:26;6.22;;;3.22;;
60416;SDS011;46263;44.726;10.396;2022-09-09T11:43:09;6.65;;;3.88;;
60416;SDS011;46263;44.726;10.396;2022-09-09T11:45:41;6.80;;;3.53;;
60416;SDS011;46263;44.726;10.396;2022-09-09T11:51:02;6.53;;;3.53;;
60416;SDS011;46263;44.726;10.396;2022-09-09T11:53:48;5.53;;;3.10;;
60416;SDS011;46263;44.726;10.396;2022-09-09T11:56:23;6.47;;;3.70;;
60416;SDS011;46263;44.726;10.396;2022-09-09T11:59:25;4.57;;;3.70;;
60416;SDS011;46263;44.726;10.396;2022-09-09T12:17:49;5.95;;;3.42;;
60416;SDS011;46263;44.726;10.396;2022-09-09T12:20:21;4.13;;;2.83;;
60416;SDS011;46263;44.726;10.396;2022-09-09T12:31:24;3.78;;;2.55;;
60416;SDS011;46263;44.726;10.396;2022-09-09T12:34:02;4.85;;;3.00;;
60416;SDS011;46263;44.726;10.396;2022-09-09T12:36:35;4.82;;;2.58;;
60416;SDS011;46263;44.726;10.396;2022-09-09T12:39:09;4.53;;;2.45;;
60416;SDS011;46263;44.726;10.396;2022-09-09T12:41:41;4.13;;;2.63;;
60416;SDS011;46263;44.726;10.396;2022-09-09T12:44:22;3.15;;;2.58;;
60416;SDS011;46263;44.726;10.396;2022-09-09T12:46:48;3.35;;;2.53;;
60416;SDS011;46263;44.726;10.396;2022-09-09T12:49:31;3.38;;;2.30;;
60416;SDS011;46263;44.726;10.396;2022-09-09T12:52:04;3.00;;;2.53;;
60416;SDS011;46263;44.726;10.396;2022-09-09T12:54:33;3.08;;;2.53;;
60416;SDS011;46263;44.726;10.396;2022-09-09T12:57:01;3.88;;;2.50;;
60416;SDS011;46263;44.726;10.396;2022-09-09T12:59:35;3.53;;;2.47;;
60416;SDS011;46263;44.726;10.396;2022-09-09T13:02:16;3.88;;;2.53;;
60416;SDS011;46263;44.726;10.396;2022-09-09T13:04:44;3.42;;;2.30;;
60416;SDS011;46263;44.726;10.396;2022-09-09T13:07:12;3.50;;;2.70;;
60416;SDS011;46263;44.726;10.396;2022-09-09T13:09:41;3.67;;;2.40;;
60416;SDS011;46263;44.726;10.396;2022-09-09T13:12:18;3.53;;;2.22;;
60416;SDS011;46263;44.726;10.396;2022-09-09T13:14:47;2.78;;;2.28;;
60416;SDS011;46263;44.726;10.396;2022-09-09T13:17:20;2.90;;;2.30;;
60416;SDS011;46263;44.726;10.396;2022-09-09T13:19:47;4.03;;;2.33;;
60416;SDS011;46263;44.726;10.396;2022-09-09T13:22:22;4.78;;;2.40;;
60416;SDS011;46263;44.726;10.396;2022-09-09T13:24:58;11.63;;;2.40;;
60416;SDS011;46263;44.726;10.396;2022-09-09T13:30:33;4.30;;;2.38;;
60416;SDS011;46263;44.726;10.396;2022-09-09T13:35:49;6.25;;;2.20;;
60416;SDS011;46263;44.726;10.396;2022-09-09T13:38:18;3.83;;;2.10;;
60416;SDS011;46263;44.726;10.396;2022-09-09T13:41:03;2.45;;;1.92;;
60416;SDS011;46263;44.726;10.396;2022-09-09T13:43:31;4.10;;;2.20;;
60416;SDS011;46263;44.726;10.396;2022-09-09T13:46:04;2.42;;;2.08;;
60416;SDS011;46263;44.726;10.396;2022-09-09T13:48:53;3.55;;;2.05;;
60416;SDS011;46263;44.726;10.396;2022-09-09T13:51:33;2.72;;;2.00;;
60416;SDS011;46263;44.726;10.396;2022-09-09T13:54:00;4.68;;;2.15;;
60416;SDS011;46263;44.726;10.396;2022-09-09T13:56:26;3.63;;;2.17;;
60416;SDS011;46263;44.726;10.396;2022-09-09T13:58:52;4.43;;;2.65;;
60416;SDS011;46263;44.726;10.396;2022-09-09T14:01:17;2.08;;;1.98;;
60416;SDS011;46263;44.726;10.396;2022-09-09T14:03:43;4.45;;;2.05;;
60416;SDS011;46263;44.726;10.396;2022-09-09T14:06:09;4.32;;;2.13;;
60416;SDS011;46263;44.726;10.396;2022-09-09T14:08:35;3.55;;;2.08;;
60416;SDS011;46263;44.726;10.396;2022-09-09T14:11:05;4.18;;;2.15;;
60416;SDS011;46263;44.726;10.396;2022-09-09T14:13:31;4.38;;;2.28;;
60416;SDS011;46263;44.726;10.396;2022-09-09T14:15:57;4.43;;;2.35;;
60416;SDS011;46263;44.726;10.396;2022-09-09T14:18:23;3.15;;;2.08;;
60416;SDS011;46263;44.726;10.396;2022-09-09T14:20:50;2.53;;;2.17;;
60416;SDS011;46263;44.726;10.396;2022-09-09T14:23:16;2.28;;;2.08;;
60416;SDS011;46263;44.726;10.396;2022-09-09T14:25:42;3.08;;;2.15;;
60416;SDS011;46263;44.726;10.396;2022-09-09T14:28:09;2.70;;;1.60;;
60416;SDS011;46263;44.726;10.396;2022-09-09T14:30:36;6.82;;;2.20;;
60416;SDS011;46263;44.726;10.396;2022-09-09T14:33:03;2.42;;;1.70;;
60416;SDS011;46263;44.726;10.396;2022-09-09T14:35:29;3.15;;;1.95;;
60416;SDS011;46263;44.726;10.396;2022-09-09T14:37:54;5.03;;;2.17;;
60416;SDS011;46263;44.726;10.396;2022-09-09T14:40:21;4.13;;;1.90;;
60416;SDS011;46263;44.726;10.396;2022-09-09T14:42:46;1.75;;;1.55;;
60416;SDS011;46263;44.726;10.396;2022-09-09T14:45:12;2.42;;;1.70;;
60416;SDS011;46263;44.726;10.396;2022-09-09T14:47:37;3.13;;;2.03;;
60416;SDS011;46263;44.726;10.396;2022-09-09T14:50:03;3.25;;;1.70;;
60416;SDS011;46263;44.726;10.396;2022-09-09T14:52:30;2.72;;;2.13;;
60416;SDS011;46263;44.726;10.396;2022-09-09T14:54:55;4.45;;;2.08;;
60416;SDS011;46263;44.726;10.396;2022-09-09T14:57:22;3.38;;;2.10;;
60416;SDS011;46263;44.726;10.396;2022-09-09T14:59:47;2.25;;;2.03;;
60416;SDS011;46263;44.726;10.396;2022-09-09T15:02:15;1.90;;;1.80;;
60416;SDS011;46263;44.726;10.396;2022-09-09T15:04:41;2.05;;;1.80;;
60416;SDS011;46263;44.726;10.396;2022-09-09T15:07:07;3.17;;;1.77;;
60416;SDS011;46263;44.726;10.396;2022-09-09T15:09:32;4.00;;;1.73;;
60416;SDS011;46263;44.726;10.396;2022-09-09T15:11:58;4.55;;;1.83;;
60416;SDS011;46263;44.726;10.396;2022-09-09T15:14:24;3.90;;;1.55;;
60416;SDS011;46263;44.726;10.396;2022-09-09T15:16:51;2.53;;;1.90;;
60416;SDS011;46263;44.726;10.396;2022-09-09T15:19:16;2.88;;;1.80;;
60416;SDS011;46263;44.726;10.396;2022-09-09T15:21:42;3.08;;;1.80;;
60416;SDS011;46263;44.726;10.396;2022-09-09T15:24:07;3.97;;;2.05;;
60416;SDS011;46263;44.726;10.396;2022-09-09T15:26:33;2.72;;;1.83;;
60416;SDS011;46263;44.726;10.396;2022-09-09T15:28:59;1.75;;;1.63;;
60416;SDS011;46263;44.726;10.396;2022-09-09T15:31:25;3.60;;;1.95;;
60416;SDS011;46263;44.726;10.396;2022-09-09T15:33:56;3.47;;;1.73;;
60416;SDS011;46263;44.726;10.396;2022-09-09T15:39:05;2.03;;;1.80;;
60416;SDS011;46263;44.726;10.396;2022-09-09T15:41:33;3.45;;;1.88;;
60416;SDS011;46263;44.726;10.396;2022-09-09T15:43:58;1.80;;;1.70;;
60416;SDS011;46263;44.726;10.396;2022-09-09T15:46:29;3.42;;;1.60;;
60416;SDS011;46263;44.726;10.396;2022-09-09T15:48:58;2.40;;;1.77;;
60416;SDS011;46263;44.726;10.396;2022-09-09T15:51:41;2.00;;;1.80;;
60416;SDS011;46263;44.726;10.396;2022-09-09T15:54:08;2.55;;;1.80;;
60416;SDS011;46263;44.726;10.396;2022-09-09T15:56:35;2.00;;;1.77;;
60416;SDS011;46263;44.726;10.396;2022-09-09T15:59:00;2.38;;;1.60;;
60416;SDS011;46263;44.726;10.396;2022-09-09T16:01:28;3.38;;;1.95;;
60416;SDS011;46263;44.726;10.396;2022-09-09T16:03:55;1.92;;;1.83;;
60416;SDS011;46263;44.726;10.396;2022-09-09T16:06:22;2.63;;;1.55;;
60416;SDS011;46263;44.726;10.396;2022-09-09T16:08:49;4.32;;;1.98;;
60416;SDS011;46263;44.726;10.396;2022-09-09T16:11:17;1.70;;;1.58;;
60416;SDS011;46263;44.726;10.396;2022-09-09T16:13:45;2.25;;;1.83;;
60416;SDS011;46263;44.726;10.396;2022-09-09T16:16:14;2.03;;;1.83;;
60416;SDS011;46263;44.726;10.396;2022-09-09T16:18:42;3.10;;;1.88;;
60416;SDS011;46263;44.726;10.396;2022-09-09T16:21:14;1.70;;;1.50;;
60416;SDS011;46263;44.726;10.396;2022-09-09T16:23:43;2.65;;;1.98;;
60416;SDS011;46263;44.726;10.396;2022-09-09T16:26:12;2.50;;;1.80;;
60416;SDS011;46263;44.726;10.396;2022-09-09T16:28:40;3.40;;;1.70;;
60416;SDS011;46263;44.726;10.396;2022-09-09T16:31:10;1.98;;;1.80;;
60416;SDS011;46263;44.726;10.396;2022-09-09T16:33:39;1.88;;;1.65;;
60416;SDS011;46263;44.726;10.396;2022-09-09T16:36:09;3.13;;;2.00;;
60416;SDS011;46263;44.726;10.396;2022-09-09T16:38:37;2.65;;;1.90;;
60416;SDS011;46263;44.726;10.396;2022-09-09T16:41:04;3.10;;;1.70;;
60416;SDS011;46263;44.726;10.396;2022-09-09T16:43:32;3.55;;;2.13;;
60416;SDS011;46263;44.726;10.396;2022-09-09T16:45:58;2.90;;;1.77;;
60416;SDS011;46263;44.726;10.396;2022-09-09T16:48:26;3.40;;;1.98;;
60416;SDS011;46263;44.726;10.396;2022-09-09T16:51:05;3.75;;;1.83;;
60416;SDS011;46263;44.726;10.396;2022-09-09T16:53:35;2.20;;;1.65;;
60416;SDS011;46263;44.726;10.396;2022-09-09T16:56:07;3.20;;;2.08;;
60416;SDS011;46263;44.726;10.396;2022-09-09T16:58:34;2.13;;;1.60;;
60416;SDS011;46263;44.726;10.396;2022-09-09T17:01:00;3.28;;;1.85;;
60416;SDS011;46263;44.726;10.396;2022-09-09T17:03:28;2.38;;;1.70;;
60416;SDS011;46263;44.726;10.396;2022-09-09T17:05:54;4.32;;;2.10;;
60416;SDS011;46263;44.726;10.396;2022-09-09T17:08:19;3.08;;;1.70;;
60416;SDS011;46263;44.726;10.396;2022-09-09T17:10:45;2.75;;;1.83;;
60416;SDS011;46263;44.726;10.396;2022-09-09T17:13:10;2.10;;;1.90;;
60416;SDS011;46263;44.726;10.396;2022-09-09T17:15:41;2.78;;;1.83;;
60416;SDS011;46263;44.726;10.396;2022-09-09T17:18:10;2.42;;;1.92;;
60416;SDS011;46263;44.726;10.396;2022-09-09T17:20:41;1.92;;;1.65;;
60416;SDS011;46263;44.726;10.396;2022-09-09T17:23:07;2.08;;;1.98;;
60416;SDS011;46263;44.726;10.396;2022-09-09T17:25:34;2.25;;;2.00;;
60416;SDS011;46263;44.726;10.396;2022-09-09T17:28:00;2.05;;;1.85;;
60416;SDS011;46263;44.726;10.396;2022-09-09T17:30:29;3.53;;;1.90;;
60416;SDS011;46263;44.726;10.396;2022-09-09T17:32:58;2.70;;;1.90;;
60416;SDS011;46263;44.726;10.396;2022-09-09T17:35:24;1.70;;;1.58;;
60416;SDS011;46263;44.726;10.396;2022-09-09T17:37:50;1.88;;;1.60;;
60416;SDS011;46263;44.726;10.396;2022-09-09T17:40:17;3.10;;;1.90;;